Time;durP1;ratioP1;P1;durP2;ratioP2;P2;SDS_P1;SDS_P2;PMS_P1;PMS_P2;Temp;Humidity;BMP_temperature;BMP_pressure;BME280_temperature;BME280_humidity;BME280_pressure;Samples;Min_cycle;Max_cycle;Signal;HPM_P1;HPM_P2
2022/11/24 00:00:44;;;;;;;148.77;84.43;;;;;;;28.27;76.89;100869.59;5090597;27;70117;-32
2022/11/24 00:03:15;;;;;;;;;;;;;;;28.09;78.28;100872.88;5087508;27;65664;-32
2022/11/24 00:05:47;;;;;;;133.02;73.00;;;;;;;28.23;77.97;100846.78;5086774;27;70007;-30
2022/11/24 00:08:19;;;;;;;117.45;67.18;;;;;;;28.19;78.18;100850.91;5087541;27;66490;-32
2022/11/24 00:10:50;;;;;;;103.32;59.78;;;;;;;28.42;78.72;100878.41;5087324;27;70159;-31
2022/11/24 00:13:22;;;;;;;94.93;56.23;;;;;;;28.39;79.16;100876.09;5086720;27;66645;-32
2022/11/24 00:15:53;;;;;;;90.67;51.43;;;;;;;28.44;80.15;100881.72;5087787;27;69334;-31
2022/11/24 00:18:25;;;;;;;77.97;46.37;;;;;;;28.34;79.77;100875.03;5092967;27;65260;-33
2022/11/24 00:20:56;;;;;;;76.80;42.43;;;;;;;28.51;80.00;100893.38;5089580;27;69330;-31
2022/11/24 00:23:28;;;;;;;73.93;40.13;;;;;;;28.54;80.05;100900.22;5077935;27;66078;-31
2022/11/24 00:26:17;;;;;;;67.10;35.90;;;;;;;28.54;80.19;100896.72;5079981;27;70453;-32
2022/11/24 00:28:51;;;;;;;57.53;31.70;;;;;;;28.60;80.81;100912.06;5085941;27;66640;-31
2022/11/24 00:31:24;;;;;;;52.90;29.27;;;;;;;28.55;81.17;100892.97;5085752;27;69343;-31
2022/11/24 00:33:58;;;;;;;36.42;23.42;;;;;;;28.12;80.78;100820.41;5084376;27;66238;-31
2022/11/24 00:36:32;;;;;;;35.47;21.77;;;;;;;28.17;81.23;100826.03;5089469;27;70097;-32
2022/11/24 00:39:06;;;;;;;39.95;20.85;;;;;;;28.54;81.09;100888.63;5088598;27;65749;-33
2022/11/24 00:41:38;;;;;;;24.13;18.08;;;;;;;28.71;81.19;100916.88;5082947;27;70511;-33
2022/11/24 00:44:10;;;;;;;23.30;15.27;;;;;;;28.35;82.28;100860.50;5079595;27;66485;-32
2022/11/24 00:46:41;;;;;;;;;;;;;;;28.44;80.33;100924.88;5083849;27;69629;-31
2022/11/24 00:49:13;;;;;;;17.27;12.73;;;;;;;28.74;77.52;100921.88;5093390;27;67042;-30
2022/11/24 00:51:45;;;;;;;14.40;11.57;;;;;;;28.77;76.56;100924.16;5085557;27;69546;-31
2022/11/24 00:54:17;;;;;;;12.95;11.65;;;;;;;28.67;76.20;100902.13;5081867;27;66189;-31
2022/11/24 00:56:49;;;;;;;11.48;10.20;;;;;;;28.80;76.27;100939.94;5084769;27;69618;-31
2022/11/24 00:59:20;;;;;;;10.70;9.63;;;;;;;28.85;75.93;100945.56;5087633;27;65849;-32
2022/11/24 01:01:52;;;;;;;;;;;;;;;28.55;77.55;100949.63;5083710;27;70042;-31
2022/11/24 01:04:23;;;;;;;10.25;9.38;;;;;;;28.77;75.87;100940.34;5081839;27;65977;-31
2022/11/24 01:06:55;;;;;;;;;;;;;;;28.56;78.10;100959.41;5087797;27;70067;-32
2022/11/24 01:09:26;;;;;;;10.20;9.18;;;;;;;28.62;76.04;100912.72;5084577;27;66579;-30
2022/11/24 01:12:00;;;;;;;11.57;8.93;;;;;;;28.80;76.12;100934.53;5084292;27;70019;-31
2022/11/24 01:14:32;;;;;;;9.43;8.52;;;;;;;28.98;75.48;100963.66;5084458;27;66379;-31
2022/11/24 01:17:04;;;;;;;10.20;9.13;;;;;;;29.01;75.62;100973.22;5083531;27;70263;-33
2022/11/24 01:19:36;;;;;;;10.07;8.23;;;;;;;28.99;75.96;100959.09;5089366;27;65765;-31
2022/11/24 01:22:08;;;;;;;9.30;8.38;;;;;;;28.99;75.93;100961.78;5080680;27;69200;-31
2022/11/24 01:24:40;;;;;;;9.40;8.50;;;;;;;28.94;75.87;100955.13;5083550;27;65935;-31
2022/11/24 01:27:11;;;;;;;10.13;8.70;;;;;;;28.85;76.03;100934.75;5082888;27;70347;-32
2022/11/24 01:29:43;;;;;;;9.10;8.32;;;;;;;29.09;75.88;100975.75;5084985;27;66373;-31
2022/11/24 01:32:15;;;;;;;9.23;8.52;;;;;;;29.10;75.95;100980.13;5086708;27;69971;-31
2022/11/24 01:34:46;;;;;;;10.50;9.57;;;;;;;29.11;75.67;100984.47;5086200;27;65302;-32
2022/11/24 01:37:18;;;;;;;10.73;9.75;;;;;;;29.04;76.32;100962.03;5086638;27;69694;-33
2022/11/24 01:39:49;;;;;;;10.52;9.68;;;;;;;29.03;75.99;100966.63;5082699;27;65966;-31
2022/11/24 01:42:21;;;;;;;11.30;10.40;;;;;;;29.17;75.75;100989.06;5082293;27;70124;-31
2022/11/24 01:45:30;;;;;;;10.07;9.18;;;;;;;29.12;76.29;100996.94;5081229;27;66756;-31
2022/11/24 01:48:11;;;;;;;10.43;9.43;;;;;;;29.17;76.32;100983.66;5084721;27;69523;-32
2022/11/24 01:50:44;;;;;;;10.45;9.45;;;;;;;29.24;75.76;100998.00;5087319;27;66347;-32
2022/11/24 01:53:15;;;;;;;10.90;9.85;;;;;;;29.17;75.88;100989.06;5079039;27;70377;-31
2022/11/24 01:55:48;;;;;;;11.52;10.18;;;;;;;29.28;75.69;101001.97;5086976;27;66263;-31
2022/11/24 01:58:23;;;;;;;10.50;9.52;;;;;;;29.30;75.46;100999.03;5089999;27;70041;-32
2022/11/24 02:00:56;;;;;;;10.93;9.82;;;;;;;29.31;76.52;101012.34;5085358;27;66883;-32
2022/11/24 02:03:34;;;;;;;11.27;10.25;;;;;;;29.36;76.57;101009.00;5088995;27;70435;-36
2022/11/24 02:06:06;;;;;;;11.20;10.35;;;;;;;29.36;76.74;101015.28;5084871;27;66246;-31
2022/11/24 02:08:52;;;;;;;10.45;9.80;;;;;;;29.31;77.23;101023.16;5085867;27;70168;-32
2022/11/24 02:11:28;;;;;;;14.57;10.75;;;;;;;29.39;76.57;101020.25;5081070;27;66163;-34
2022/11/24 02:14:01;;;;;;;10.43;9.60;;;;;;;29.40;76.38;101027.31;5070491;27;70457;-31
2022/11/24 02:16:33;;;;;;;;;;;;;;;29.08;78.72;101020.81;5083995;27;66177;-32
2022/11/24 02:19:30;;;;;;;10.23;9.35;;;;;;;29.39;77.06;101025.66;5087986;27;68523;-32
2022/11/24 02:22:03;;;;;;;10.63;9.77;;;;;;;29.44;76.84;101032.31;5056184;27;66418;-30
2022/11/24 02:25:00;;;;;;;11.15;10.45;;;;;;;29.32;78.10;101022.13;5082992;27;70372;-31
2022/11/24 02:27:32;;;;;;;12.02;10.85;;;;;;;29.47;76.31;101031.88;5083217;27;66416;-34
2022/11/24 02:30:04;;;;;;;12.65;11.38;;;;;;;29.26;76.55;100993.22;5081490;27;70290;-32
2022/11/24 02:32:39;;;;;;;10.88;10.02;;;;;;;29.14;76.68;100970.53;5088121;27;65986;-31
2022/11/24 02:35:13;;;;;;;11.32;10.48;;;;;;;29.52;76.20;101018.59;5085126;27;70364;-31
2022/11/24 02:37:44;;;;;;;11.30;10.40;;;;;;;29.55;76.19;101023.56;5083306;27;65658;-33
2022/11/24 02:40:23;;;;;;;12.23;11.27;;;;;;;29.57;76.10;101022.34;5087213;27;70478;-33
2022/11/24 02:43:03;;;;;;;12.10;11.02;;;;;;;29.14;76.49;100947.09;5081551;27;66295;-32
2022/11/24 02:45:34;;;;;;;11.25;10.15;;;;;;;29.62;76.17;101011.72;5087412;27;70194;-32
2022/11/24 02:48:06;;;;;;;;;;;;;;;29.31;78.19;101012.34;5086008;27;65763;-31
2022/11/24 02:50:37;;;;;;;12.35;11.48;;;;;;;29.62;76.35;101008.19;5086441;27;69794;-31
2022/11/24 02:53:09;;;;;;;12.85;12.00;;;;;;;29.46;75.81;100968.06;5096161;27;65964;-31
2022/11/24 02:55:40;;;;;;;16.02;14.93;;;;;;;29.67;76.12;100994.94;5089448;27;69129;-33
2022/11/24 02:58:13;;;;;;;19.50;17.75;;;;;;;29.67;76.01;100994.94;5087387;27;65315;-32
2022/11/24 03:00:45;;;;;;;30.45;27.77;;;;;;;29.71;75.75;100985.34;5099065;27;70796;-32
2022/11/24 03:03:17;;;;;;;25.48;23.48;;;;;;;29.72;75.54;100988.88;5087699;27;65799;-30
2022/11/24 03:05:49;;;;;;;30.38;27.55;;;;;;;29.75;75.48;100986.56;5096785;27;70144;-32
2022/11/24 03:08:21;;;;;;;33.92;30.83;;;;;;;29.72;75.74;100984.28;5091959;27;65266;-33
2022/11/24 03:10:53;;;;;;;28.53;25.93;;;;;;;29.68;75.71;100974.94;5094224;27;69969;-31
2022/11/24 03:13:24;;;;;;;33.47;30.27;;;;;;;29.83;75.22;100999.03;5088333;27;65484;-31
2022/11/24 03:15:56;;;;;;;34.55;31.15;;;;;;;29.83;75.04;100999.88;5097749;27;69850;-34
2022/11/24 03:18:28;;;;;;;41.70;37.67;;;;;;;29.65;75.13;100967.25;5088900;27;66909;-32
2022/11/24 03:20:59;;;;;;;39.80;36.17;;;;;;;29.86;75.17;101011.31;5086268;27;69186;-32
2022/11/24 03:23:31;;;;;;;44.10;39.78;;;;;;;29.88;74.64;101011.94;5092693;27;66145;-34
2022/11/24 03:26:14;;;;;;;42.00;38.10;;;;;;;29.54;74.59;100951.66;5094187;27;69812;-31
2022/11/24 03:28:45;;;;;;;47.28;42.80;;;;;;;29.92;74.32;101013.16;5093435;27;65756;-33
2022/11/24 03:31:17;;;;;;;47.88;43.15;;;;;;;29.93;74.69;101009.44;5085967;27;70452;-32
2022/11/24 03:33:49;;;;;;;60.55;54.28;;;;;;;29.96;74.63;101004.44;5090869;27;65930;-32
2022/11/24 03:36:20;;;;;;;60.80;54.53;;;;;;;29.98;74.35;101001.53;5090031;27;70364;-31
2022/11/24 03:38:52;;;;;;;66.57;59.88;;;;;;;29.84;74.23;100979.09;5092427;27;66713;-33
2022/11/24 03:41:24;;;;;;;;;;;;;;;29.72;75.77;100991.56;5088181;27;69883;-31
2022/11/24 03:43:55;;;;;;;83.18;75.18;;;;;;;29.97;74.34;100986.34;5098582;27;65907;-35
2022/11/24 03:46:26;;;;;;;81.93;73.03;;;;;;;29.97;74.43;100989.84;5089611;27;70210;-32
2022/11/24 03:48:58;;;;;;;74.35;66.70;;;;;;;29.96;74.31;100987.38;5090253;27;65447;-31
2022/11/24 03:51:29;;;;;;;76.03;68.32;;;;;;;30.04;73.98;101012.31;5092288;27;70328;-32
2022/11/24 03:54:01;;;;;;;79.55;71.65;;;;;;;30.00;74.43;101024.59;5090988;27;66361;-32
2022/11/24 03:56:33;;;;;;;69.07;62.05;;;;;;;30.02;74.06;101040.63;5089606;27;70162;-34
2022/11/24 03:59:04;;;;;;;70.68;63.67;;;;;;;30.07;74.31;101038.13;5086024;27;66478;-31
2022/11/24 04:01:36;;;;;;;70.03;63.10;;;;;;;30.07;74.31;101030.00;5094146;27;70239;-33
2022/11/24 04:04:11;;;;;;;65.28;57.83;;;;;;;30.10;74.47;101026.88;5095206;27;66319;-33
2022/11/24 04:06:42;;;;;;;60.47;54.38;;;;;;;30.09;74.07;101011.72;5084836;27;70956;-33
2022/11/24 04:09:14;;;;;;;;;;;;;;;29.73;75.72;101007.59;5078820;27;66010;-34
2022/11/24 04:14:35;;;;;;;52.05;46.88;;;;;;;30.00;74.20;101008.38;5088254;27;66458;-33
2022/11/24 04:17:07;;;;;;;51.40;46.33;;;;;;;30.07;73.95;101021.91;5088266;27;68960;-33
2022/11/24 04:19:39;;;;;;;45.55;41.15;;;;;;;30.07;74.04;101016.50;5082269;27;65766;-32
2022/11/24 04:22:11;;;;;;;42.55;38.40;;;;;;;30.11;73.96;101022.28;5083186;27;69792;-31
2022/11/24 04:24:42;;;;;;;40.65;36.65;;;;;;;30.10;74.08;101009.81;5088354;27;66173;-32
2022/11/24 04:27:15;;;;;;;39.88;35.65;;;;;;;30.12;74.15;101019.41;5082996;27;69943;-34
2022/11/24 04:29:47;;;;;;;37.92;34.22;;;;;;;29.99;74.32;100997.78;5090258;27;66367;-32
2022/11/24 04:32:18;;;;;;;35.30;31.65;;;;;;;30.09;74.68;101014.41;5086216;27;68535;-32
2022/11/24 04:34:50;;;;;;;34.95;31.58;;;;;;;30.04;74.43;101000.69;5066309;28;65586;-31
2022/11/24 04:37:22;;;;;;;37.13;32.80;;;;;;;30.07;74.78;100986.72;5082519;27;69778;-32
2022/11/24 04:39:54;;;;;;;37.85;34.28;;;;;;;30.07;74.95;100992.13;5090179;27;66065;-32
2022/11/24 04:42:24;;;;;;;;;;;;;;;29.77;75.80;100983.66;5086890;27;70527;-32
2022/11/24 04:44:56;;;;;;;36.03;32.63;;;;;;;29.91;74.55;100938.50;5088349;27;65523;-31
2022/11/24 04:47:27;;;;;;;38.50;34.88;;;;;;;30.07;74.96;100959.69;5086037;27;70307;-31
2022/11/24 04:49:59;;;;;;;40.33;36.03;;;;;;;30.11;74.35;100951.97;5082602;27;66168;-31
2022/11/24 04:52:30;;;;;;;36.80;33.38;;;;;;;30.12;74.15;100942.81;5088806;27;70121;-32
2022/11/24 04:55:02;;;;;;;33.60;30.55;;;;;;;30.15;74.46;100948.63;5086487;27;65209;-35
2022/11/24 04:57:33;;;;;;;;;;;;;;;29.83;74.68;100945.78;5087745;27;70198;-33
2022/11/24 05:00:06;;;;;;;30.75;27.95;;;;;;;30.16;74.00;100933.22;5087684;27;67233;-34
2022/11/24 05:02:37;;;;;;;31.13;28.02;;;;;;;30.20;73.57;100924.47;5082137;27;69527;-32
2022/11/24 05:05:09;;;;;;;28.13;25.83;;;;;;;30.17;73.65;100918.63;5084142;27;65791;-32
2022/11/24 05:07:41;;;;;;;26.70;24.33;;;;;;;30.21;73.26;100909.88;5089275;27;69512;-34
2022/11/24 05:13:05;;;;;;;24.13;21.98;;;;;;;29.79;73.53;100820.19;5083542;27;69495;-32
2022/11/24 05:15:38;;;;;;;22.73;20.88;;;;;;;30.32;73.43;100902.16;5090580;27;66495;-34
2022/11/24 05:18:17;;;;;;;21.70;20.08;;;;;;;30.36;73.33;100901.50;5081283;27;70012;-32
2022/11/24 05:20:48;;;;;;;19.55;18.25;;;;;;;30.33;74.05;100901.13;5081151;27;66388;-32
2022/11/24 05:23:20;;;;;;;20.05;18.33;;;;;;;30.37;74.13;100902.31;5083549;27;69199;-33
2022/11/24 05:25:52;;;;;;;19.42;17.90;;;;;;;30.38;73.75;100904.84;5083644;27;65136;-32
2022/11/24 05:28:23;;;;;;;;;;;;;;;30.08;74.58;100907.22;5083568;27;70160;-33
2022/11/24 05:30:57;;;;;;;17.92;16.48;;;;;;;30.34;73.63;100898.22;5088131;27;66057;-32
2022/11/24 05:33:32;;;;;;;16.77;15.63;;;;;;;30.25;73.77;100881.38;5087200;27;70308;-36
2022/11/24 05:36:05;;;;;;;15.82;14.82;;;;;;;30.42;73.70;100905.22;5084888;27;66264;-31
2022/11/24 05:38:37;;;;;;;16.38;14.85;;;;;;;30.44;74.28;100897.72;5084977;27;69447;-32
2022/11/24 05:41:08;;;;;;;14.02;13.23;;;;;;;30.34;73.87;100881.13;5076832;27;65361;-32
2022/11/24 05:43:40;;;;;;;14.50;13.55;;;;;;;30.24;74.11;100866.19;5086995;27;69909;-30
2022/11/24 05:46:11;;;;;;;12.95;12.15;;;;;;;30.41;74.10;100896.28;5083687;27;65266;-31
2022/11/24 05:48:43;;;;;;;14.68;13.40;;;;;;;30.38;74.26;100888.59;5090275;27;70246;-32
2022/11/24 05:51:15;;;;;;;12.70;11.65;;;;;;;30.43;74.42;100887.94;5087438;27;65080;-32
2022/11/24 05:53:46;;;;;;;12.30;11.40;;;;;;;30.42;74.60;100879.00;5082901;27;70086;-31
2022/11/24 05:56:18;;;;;;;;;;;;;;;30.10;75.24;100872.69;5083906;27;65533;-31
2022/11/24 05:58:49;;;;;;;10.15;9.60;;;;;;;30.42;74.53;100856.50;5089288;27;69626;-32
2022/11/24 06:01:21;;;;;;;10.88;10.10;;;;;;;30.44;74.42;100857.94;5085267;27;66285;-32
2022/11/24 06:03:53;;;;;;;10.80;10.23;;;;;;;30.38;74.27;100841.75;5086222;27;69981;-31
2022/11/24 06:06:24;;;;;;;11.07;10.27;;;;;;;30.25;74.29;100810.19;5084025;27;66229;-32
2022/11/24 06:08:55;;;;;;;10.82;10.02;;;;;;;30.44;74.83;100827.34;5086876;27;69735;-31
2022/11/24 06:11:27;;;;;;;;;;;;;;;30.12;75.80;100816.50;5089049;27;65716;-31
2022/11/24 06:13:58;;;;;;;9.30;8.60;;;;;;;30.43;74.71;100823.81;5081098;27;68968;-34
2022/11/24 06:16:30;;;;;;;9.13;8.45;;;;;;;30.46;74.71;100814.44;5091735;27;64621;-31
2022/11/24 06:19:01;;;;;;;8.45;8.05;;;;;;;30.41;74.87;100789.91;5084176;27;68883;-32
2022/11/24 06:21:32;;;;;;;8.75;8.23;;;;;;;30.37;74.44;100777.84;5083151;27;65471;-31
2022/11/24 06:24:04;;;;;;;8.80;8.10;;;;;;;30.38;74.74;100768.69;5086109;27;70501;-32
2022/11/24 06:26:36;;;;;;;8.15;7.35;;;;;;;30.44;74.45;100768.63;5097494;27;64516;-32
2022/11/24 06:29:08;;;;;;;8.43;7.97;;;;;;;30.49;75.01;100767.97;5086508;27;70326;-32
2022/11/24 06:31:39;;;;;;;7.97;7.38;;;;;;;30.49;74.54;100757.16;5088995;27;66323;-30
2022/11/24 06:34:12;;;;;;;8.07;7.43;;;;;;;30.03;74.67;100679.81;5083728;27;70369;-35
2022/11/24 06:36:44;;;;;;;7.63;7.22;;;;;;;30.53;75.00;100750.22;5079540;27;66140;-31
2022/11/24 06:39:16;;;;;;;7.65;7.10;;;;;;;30.53;74.55;100755.66;5082166;27;70389;-32
2022/11/24 06:41:49;;;;;;;;;;;;;;;30.21;75.59;100747.53;5087569;27;66405;-35
2022/11/24 06:44:21;;;;;;;7.47;6.95;;;;;;;30.36;74.51;100732.91;5082167;27;69773;-33
2022/11/24 06:46:52;;;;;;;7.70;7.18;;;;;;;30.51;74.70;100755.06;5085963;27;65800;-32
2022/11/24 06:49:24;;;;;;;7.70;7.10;;;;;;;30.44;74.24;100735.31;5085235;27;70219;-35
2022/11/24 06:51:56;;;;;;;;;;;;;;;30.24;75.76;100767.97;5082875;27;66713;-32
2022/11/24 06:54:27;;;;;;;7.38;6.78;;;;;;;30.51;74.64;100768.59;5080705;27;69973;-33
2022/11/24 06:56:59;;;;;;;7.13;6.45;;;;;;;30.56;75.10;100787.69;5082456;27;65302;-32
2022/11/24 06:59:31;;;;;;;6.55;6.05;;;;;;;30.55;74.99;100775.22;5083124;27;70476;-33
2022/11/24 07:02:03;;;;;;;6.75;5.85;;;;;;;30.56;75.13;100776.84;5085829;27;65077;-32
2022/11/24 07:04:34;;;;;;;6.07;5.28;;;;;;;30.54;74.62;100776.28;5084957;27;70466;-32
2022/11/24 07:07:06;;;;;;;6.20;5.68;;;;;;;30.54;75.16;100762.75;5081110;27;66211;-33
2022/11/24 07:09:37;;;;;;;6.22;5.82;;;;;;;30.57;74.52;100778.53;5084679;27;69144;-32
2022/11/24 07:12:09;;;;;;;6.20;5.70;;;;;;;30.56;74.86;100766.03;5082034;27;65872;-34
2022/11/24 07:14:40;;;;;;;6.22;5.82;;;;;;;30.57;74.79;100767.72;5087030;27;70203;-32
2022/11/24 07:17:12;;;;;;;6.35;5.75;;;;;;;30.58;74.82;100766.66;5081463;27;66617;-35
2022/11/24 07:19:44;;;;;;;6.55;5.53;;;;;;;30.53;74.56;100769.19;5080368;27;70722;-32
2022/11/24 07:22:15;;;;;;;6.25;5.75;;;;;;;30.57;75.28;100756.88;5083718;27;66102;-31
2022/11/24 07:24:47;;;;;;;10.63;5.55;;;;;;;30.51;74.96;100741.53;5079280;27;69679;-31
2022/11/24 07:27:19;;;;;;;5.93;5.43;;;;;;;30.54;74.83;100745.66;5086215;27;66268;-32
2022/11/24 07:29:51;;;;;;;5.43;5.13;;;;;;;30.58;74.52;100766.66;5092667;27;69928;-31
2022/11/24 07:32:22;;;;;;;5.85;5.45;;;;;;;30.45;74.98;100736.97;5084390;27;66822;-33
2022/11/24 07:34:53;;;;;;;6.03;5.53;;;;;;;30.56;74.74;100747.09;5083264;27;70085;-31
2022/11/24 07:37:26;;;;;;;5.75;5.35;;;;;;;30.53;74.92;100744.81;5088589;27;66110;-32
2022/11/24 07:40:01;;;;;;;6.35;5.85;;;;;;;30.59;74.57;100752.06;5090650;27;70380;-32
2022/11/24 07:42:32;;;;;;;6.25;5.68;;;;;;;30.58;74.91;100753.13;5091325;27;66766;-35
2022/11/24 07:45:04;;;;;;;5.78;5.38;;;;;;;30.60;75.02;100744.78;5091858;27;69809;-32
2022/11/24 07:47:38;;;;;;;;;;;;;;;30.27;75.68;100743.16;5086586;27;66954;-32
2022/11/24 07:50:10;;;;;;;5.55;5.15;;;;;;;29.68;74.65;100591.06;5085431;27;69857;-32
2022/11/24 07:52:41;;;;;;;6.05;5.55;;;;;;;30.61;74.79;100725.59;5091804;27;65761;-33
2022/11/24 07:55:13;;;;;;;5.53;5.10;;;;;;;30.60;75.11;100732.06;5092340;27;70212;-32
2022/11/24 07:57:44;;;;;;;6.10;5.70;;;;;;;30.60;74.69;100728.53;5088020;27;66211;-31
2022/11/24 08:00:16;;;;;;;5.35;4.88;;;;;;;30.59;75.09;100727.72;5083897;27;69294;-31
2022/11/24 08:02:48;;;;;;;5.70;5.30;;;;;;;30.62;74.97;100716.44;5085966;27;65724;-32
2022/11/24 08:05:20;;;;;;;5.90;5.28;;;;;;;30.63;74.58;100718.09;5083998;27;69980;-32
2022/11/24 08:07:51;;;;;;;;;;;;;;;30.32;75.61;100720.88;5083372;27;66809;-37
2022/11/24 08:10:22;;;;;;;5.70;5.30;;;;;;;30.58;74.96;100709.78;5089914;27;70303;-31
2022/11/24 08:12:54;;;;;;;;;;;;;;;30.33;75.67;100728.75;5085939;27;67237;-30
2022/11/24 08:15:25;;;;;;;5.60;5.22;;;;;;;30.66;74.83;100727.66;5086602;27;69978;-31
2022/11/24 08:18:01;;;;;;;5.47;5.07;;;;;;;29.82;74.54;100581.00;5082426;27;66227;-31
2022/11/24 08:20:33;;;;;;;5.47;5.10;;;;;;;30.59;74.56;100714.19;5093221;27;69791;-32
2022/11/24 08:23:04;;;;;;;5.78;5.28;;;;;;;30.69;74.92;100728.00;5090009;27;66105;-33
2022/11/24 08:25:36;;;;;;;5.57;5.07;;;;;;;30.64;74.64;100724.31;5083649;27;70223;-31
2022/11/24 08:28:07;;;;;;;5.22;4.82;;;;;;;30.70;74.61;100724.28;5086223;27;67314;-33
2022/11/24 08:30:39;;;;;;;6.68;5.13;;;;;;;30.69;74.53;100717.19;5086017;27;70046;-32
2022/11/24 08:33:11;;;;;;;6.15;5.75;;;;;;;30.67;74.50;100708.47;5083086;27;66042;-34
2022/11/24 08:35:43;;;;;;;5.57;5.07;;;;;;;30.65;74.69;100707.03;5082324;27;69381;-31
2022/11/24 08:38:16;;;;;;;8.23;5.22;;;;;;;30.63;74.33;100707.25;5083764;27;65876;-33
2022/11/24 08:40:50;;;;;;;6.38;5.53;;;;;;;30.76;74.43;100727.13;5087135;27;43106;-31
2022/11/24 08:43:22;;;;;;;6.18;5.13;;;;;;;30.78;74.32;100723.13;5089934;27;66647;-32
2022/11/24 08:45:53;;;;;;;;;;;;;;;30.47;75.88;100724.06;5088674;27;70605;-33
2022/11/24 08:48:24;;;;;;;5.25;4.85;;;;;;;30.66;74.86;100711.41;5080386;27;65985;-32
2022/11/24 08:50:57;;;;;;;5.40;4.85;;;;;;;30.79;74.86;100726.69;5083751;27;68505;-32
2022/11/24 08:53:29;;;;;;;4.95;4.60;;;;;;;30.79;74.53;100715.88;5084983;27;66486;-32
2022/11/24 08:56:00;;;;;;;;;;;;;;;30.48;75.70;100721.13;5084249;27;72232;-32
2022/11/24 08:58:32;;;;;;;5.18;4.78;;;;;;;30.70;74.54;100708.03;5085745;27;67934;-32
2022/11/24 09:01:05;;;;;;;6.40;4.68;;;;;;;30.55;74.29;100680.47;5088034;27;69575;-31
2022/11/24 09:03:38;;;;;;;4.60;4.20;;;;;;;30.80;74.41;100718.38;5086051;27;66107;-31
2022/11/24 09:06:24;;;;;;;5.40;5.03;;;;;;;30.81;74.56;100732.72;5084516;27;70252;-31
2022/11/24 09:08:56;;;;;;;7.45;4.35;;;;;;;30.82;74.79;100720.88;5084566;27;66255;-31
2022/11/24 09:11:27;;;;;;;;;;;;;;;30.51;75.85;100725.28;5083260;27;70389;-32
2022/11/24 09:13:58;;;;;;;4.35;3.83;;;;;;;30.79;74.81;100722.09;5082795;27;66588;-32
2022/11/24 09:16:29;;;;;;;4.70;4.40;;;;;;;30.71;75.02;100709.69;5084371;27;70707;-31
2022/11/24 09:19:04;;;;;;;4.75;4.45;;;;;;;30.59;74.69;100700.66;5084371;27;65769;-33
2022/11/24 09:21:38;;;;;;;5.50;5.10;;;;;;;30.59;75.19;100714.19;5083304;27;70574;-30
2022/11/24 09:24:10;;;;;;;4.97;4.57;;;;;;;30.58;75.88;100731.44;5085403;27;66832;-32
2022/11/24 09:26:41;;;;;;;5.13;4.65;;;;;;;30.36;75.94;100703.13;5083272;27;70138;-31
2022/11/24 09:29:16;;;;;;;4.93;4.60;;;;;;;30.41;76.05;100720.34;5088613;27;65723;-32
2022/11/24 09:31:49;;;;;;;4.70;4.40;;;;;;;30.46;76.08;100733.22;5082942;27;69584;-32
2022/11/24 09:34:21;;;;;;;4.68;4.38;;;;;;;30.44;76.49;100724.50;5083026;27;65924;-31
2022/11/24 09:36:51;;;;;;;;;;;;;;;30.19;77.18;100728.00;5085502;27;70366;-31
2022/11/24 09:39:23;;;;;;;7.47;5.13;;;;;;;30.38;76.93;100733.50;5085072;27;66620;-32
2022/11/24 09:42:35;;;;;;;5.97;4.93;;;;;;;30.37;76.60;100731.84;5085195;27;69661;-32
2022/11/24 09:45:26;;;;;;;;;;;;;;;30.16;77.77;100733.84;5065385;27;66585;-31
2022/11/24 09:48:49;;;;;;;5.45;4.97;;;;;;;29.89;76.89;100670.16;5082485;27;70265;-32
2022/11/24 09:51:30;;;;;;;4.57;4.28;;;;;;;30.38;76.47;100747.03;5081802;27;66986;-34
2022/11/24 09:54:09;;;;;;;5.82;4.90;;;;;;;29.94;76.83;100681.97;5082192;27;70095;-32
2022/11/24 09:56:42;;;;;;;5.35;4.95;;;;;;;30.35;76.97;100761.00;5082224;27;66967;-32
2022/11/24 09:59:18;;;;;;;5.43;5.03;;;;;;;30.30;77.01;100741.91;5083913;27;70501;-32
2022/11/24 10:01:51;;;;;;;6.43;4.28;;;;;;;30.19;76.84;100733.41;5088059;27;65923;-31
2022/11/24 10:04:27;;;;;;;5.00;4.70;;;;;;;30.38;76.88;100765.97;5079072;27;69406;-32
2022/11/24 10:07:11;;;;;;;5.20;4.80;;;;;;;30.32;76.68;100766.88;5081847;27;66276;-35
2022/11/24 10:10:11;;;;;;;6.22;4.80;;;;;;;30.26;77.12;100777.50;5080116;27;69279;-33
2022/11/24 10:13:05;;;;;;;4.95;4.55;;;;;;;29.89;77.00;100694.50;5089002;27;66078;-31
2022/11/24 10:15:42;;;;;;;4.95;4.53;;;;;;;30.33;77.51;100779.34;5087160;27;69968;-32
2022/11/24 10:18:33;;;;;;;5.70;5.20;;;;;;;30.28;77.23;100775.44;5088830;27;65706;-34
2022/11/24 10:21:43;;;;;;;7.63;4.55;;;;;;;30.29;78.14;100776.25;5085364;27;69785;-35
2022/11/24 10:24:36;;;;;;;5.28;4.78;;;;;;;30.21;77.49;100769.19;5059597;27;66474;-32
2022/11/24 10:27:19;;;;;;;5.40;5.00;;;;;;;30.36;77.77;100795.13;5082195;27;70181;-32
2022/11/24 10:29:54;;;;;;;6.03;5.20;;;;;;;30.24;77.61;100771.50;5086759;27;66456;-33
2022/11/24 10:32:36;;;;;;;6.18;4.63;;;;;;;30.37;77.44;100785.97;5081322;27;70596;-32
2022/11/24 10:35:21;;;;;;;6.00;5.47;;;;;;;30.46;77.21;100790.06;5087664;27;65959;-36
2022/11/24 10:37:55;;;;;;;6.95;5.03;;;;;;;30.50;76.71;100796.69;5066908;27;70023;-36
2022/11/24 10:40:35;;;;;;;5.65;5.25;;;;;;;30.55;76.59;100798.75;5087269;27;67423;-36
2022/11/24 10:43:27;;;;;;;6.90;5.18;;;;;;;30.06;76.61;100709.13;5085102;27;70248;-36
2022/11/24 10:46:14;;;;;;;5.93;5.53;;;;;;;30.43;76.70;100774.28;5077826;27;66010;-32
2022/11/24 10:48:58;;;;;;;7.72;5.22;;;;;;;30.56;76.43;100798.50;5086481;27;69649;-33
2022/11/24 10:52:04;;;;;;;5.35;4.97;;;;;;;30.23;76.53;100744.66;5078898;27;66790;-34
2022/11/24 10:54:52;;;;;;;6.20;5.70;;;;;;;30.58;76.65;100790.19;5083848;27;70063;-33
2022/11/24 10:57:34;;;;;;;7.53;5.35;;;;;;;30.61;76.70;100805.97;5088792;27;67004;-35
2022/11/24 11:00:19;;;;;;;5.55;5.10;;;;;;;30.58;76.22;100815.38;5077159;27;69642;-35
2022/11/24 11:03:10;;;;;;;6.35;5.55;;;;;;;30.22;76.52;100745.69;5082166;27;66223;-33
2022/11/24 11:05:47;;;;;;;5.55;5.15;;;;;;;30.64;76.30;100821.78;5093828;27;69477;-33
2022/11/24 11:08:23;;;;;;;5.38;4.88;;;;;;;30.66;76.25;100809.69;5080585;27;65158;-34
2022/11/24 11:11:28;;;;;;;5.15;4.65;;;;;;;30.57;76.77;100804.78;5087654;27;71189;-34
2022/11/24 11:14:03;;;;;;;5.22;4.75;;;;;;;30.65;76.32;100818.88;5088043;27;66662;-33
2022/11/24 11:16:36;;;;;;;6.93;5.63;;;;;;;30.64;76.66;100824.50;5085083;27;70155;-36
2022/11/24 11:19:35;;;;;;;6.90;5.13;;;;;;;30.53;76.59;100812.50;5082919;27;65370;-34
2022/11/24 11:22:30;;;;;;;4.88;4.38;;;;;;;30.63;76.45;100820.13;5092033;27;69137;-34
2022/11/24 11:25:03;;;;;;;6.20;5.00;;;;;;;30.64;76.38;100822.59;5066737;27;66263;-36
2022/11/24 11:27:35;;;;;;;5.38;4.88;;;;;;;30.51;76.58;100803.78;5070957;27;69273;-34
2022/11/24 11:30:21;;;;;;;;;;;;;;;30.28;77.21;100829.53;5087363;27;67289;-35
2022/11/24 11:33:23;;;;;;;8.95;6.50;;;;;;;30.11;76.43;100768.00;5082648;27;69904;-35
2022/11/24 11:36:15;;;;;;;6.43;5.90;;;;;;;30.22;76.50;100787.09;5093263;27;66718;-33
2022/11/24 11:38:48;;;;;;;9.90;6.50;;;;;;;30.57;76.11;100843.50;5085540;27;70047;-34
2022/11/24 11:41:33;;;;;;;7.45;6.82;;;;;;;30.57;76.17;100858.94;5085040;27;65250;-34
2022/11/24 11:44:41;;;;;;;8.30;7.60;;;;;;;30.46;76.45;100846.91;5084280;27;69936;-34
2022/11/24 11:47:27;;;;;;;8.05;7.32;;;;;;;30.51;76.13;100860.63;5084977;27;66164;-34
2022/11/24 11:49:59;;;;;;;7.30;6.70;;;;;;;30.13;76.18;100799.22;5086205;27;70553;-35
2022/11/24 11:53:07;;;;;;;8.10;7.30;;;;;;;30.40;76.63;100858.63;5088310;27;66476;-36
2022/11/24 11:55:38;;;;;;;7.53;6.95;;;;;;;30.50;76.58;100858.94;5081824;27;69256;-34
2022/11/24 11:59:01;;;;;;;7.32;6.82;;;;;;;30.40;76.08;100864.03;5084382;27;66421;-32
2022/11/24 12:02:07;;;;;;;6.43;5.93;;;;;;;30.39;76.80;100873.19;5051077;27;70485;-35
2022/11/24 12:05:01;;;;;;;6.70;6.15;;;;;;;30.50;76.61;100875.19;5089642;27;67008;-32
2022/11/24 12:07:45;;;;;;;9.43;6.47;;;;;;;30.49;75.89;100884.38;5088786;27;69895;-35